Time;durP1;ratioP1;P1;durP2;ratioP2;P2;SDS_P1;SDS_P2;PMS_P1;PMS_P2;Temp;Humidity;BMP_temperature;BMP_pressure;BME280_temperature;BME280_humidity;BME280_pressure;Samples;Min_cycle;Max_cycle;Signal;HPM_P1;HPM_P2
2024/02/28 00:02:46;;;;;;;44.38;18.58;;;4.50;85.10;;;;;;9173590;19;20010;-66
2024/02/28 00:05:52;;;;;;;38.60;17.05;;;4.50;85.10;;;;;;9173671;19;20010;-66
2024/02/28 00:08:59;;;;;;;47.80;17.50;;;4.50;85.10;;;;;;9172598;19;20037;-66
2024/02/28 00:12:05;;;;;;;42.83;17.90;;;4.50;85.10;;;;;;9173268;19;20018;-66
2024/02/28 00:15:13;;;;;;;44.13;17.77;;;4.50;85.10;;;;;;9177858;19;20779;-65
2024/02/28 00:18:21;;;;;;;52.40;17.08;;;4.50;85.20;;;;;;9180542;19;20440;-67
2024/02/28 00:21:29;;;;;;;37.40;15.48;;;4.50;85.20;;;;;;9181207;19;20019;-66
2024/02/28 00:24:34;;;;;;;58.40;14.95;;;4.50;85.20;;;;;;9181594;19;20082;-66
2024/02/28 00:27:42;;;;;;;33.92;15.00;;;4.50;85.10;;;;;;9181327;19;20022;-67
2024/02/28 00:30:48;;;;;;;39.65;13.77;;;4.40;85.10;;;;;;9178589;19;20026;-67
2024/02/28 00:33:58;;;;;;;28.95;13.98;;;4.40;85.00;;;;;;9178334;19;20021;-66
2024/02/28 00:37:03;;;;;;;35.90;15.30;;;4.30;85.00;;;;;;9179248;19;20013;-68
2024/02/28 00:40:12;;;;;;;58.28;15.95;;;4.30;85.00;;;;;;9180423;19;20010;-65
2024/02/28 00:43:18;;;;;;;35.33;15.10;;;4.30;85.00;;;;;;9179418;19;20050;-68
2024/02/28 00:46:25;;;;;;;33.67;15.07;;;4.30;85.10;;;;;;9179514;19;20026;-66
2024/02/28 00:49:34;;;;;;;32.25;14.77;;;4.20;85.00;;;;;;9180988;19;20356;-66
2024/02/28 00:52:42;;;;;;;40.17;15.38;;;4.20;85.10;;;;;;9178662;19;20029;-65
2024/02/28 00:55:48;;;;;;;47.92;15.45;;;4.20;85.10;;;;;;9180006;19;20059;-66
2024/02/28 00:58:55;;;;;;;41.70;15.85;;;4.20;85.10;;;;;;9180122;19;20029;-66
2024/02/28 01:02:01;;;;;;;38.08;16.48;;;4.20;85.70;;;;;;9178980;19;20357;-65
2024/02/28 01:05:11;;;;;;;38.42;15.63;;;4.20;85.20;;;;;;9178903;19;20047;-66
2024/02/28 01:08:17;;;;;;;32.30;14.73;;;4.20;85.20;;;;;;9177408;19;20502;-65
2024/02/28 01:11:24;;;;;;;33.10;14.43;;;4.20;85.30;;;;;;9178380;19;20479;-65
2024/02/28 01:14:30;;;;;;;53.25;15.73;;;4.10;85.20;;;;;;9173122;19;20114;-65
2024/02/28 01:17:37;;;;;;;32.00;15.23;;;4.20;85.30;;;;;;9178823;19;20018;-66
2024/02/28 01:20:45;;;;;;;42.42;16.00;;;4.10;85.10;;;;;;9179606;19;20086;-66
2024/02/28 01:23:54;;;;;;;38.42;15.98;;;4.10;85.20;;;;;;9177327;19;20021;-67
2024/02/28 01:26:59;;;;;;;38.20;16.40;;;4.10;85.20;;;;;;9177919;19;20006;-65
2024/02/28 01:30:08;;;;;;;38.55;16.10;;;4.10;85.30;;;;;;9178736;19;20019;-68
2024/02/28 01:33:15;;;;;;;33.25;15.95;;;4.10;85.30;;;;;;9176952;19;20021;-66
2024/02/28 01:36:26;;;;;;;36.85;16.98;;;4.10;85.30;;;;;;9176660;19;20018;-66
2024/02/28 01:39:32;;;;;;;34.92;15.93;;;4.10;85.30;;;;;;9178176;19;20047;-66
2024/02/28 01:42:39;;;;;;;37.22;15.88;;;4.00;85.30;;;;;;9176867;19;20384;-65
2024/02/28 01:45:47;;;;;;;48.30;16.52;;;4.10;85.40;;;;;;9178255;19;20538;-65
2024/02/28 01:48:55;;;;;;;33.03;15.45;;;4.00;85.30;;;;;;9176817;19;20021;-67
2024/02/28 01:52:04;;;;;;;33.35;15.55;;;4.00;85.30;;;;;;9178170;19;20645;-65
2024/02/28 01:55:12;;;;;;;33.80;15.45;;;4.00;85.30;;;;;;9174739;19;20010;-66
2024/02/28 01:58:17;;;;;;;28.30;13.18;;;4.00;85.30;;;;;;9176782;19;20927;-68
2024/02/28 02:01:25;;;;;;;33.28;15.27;;;4.00;85.40;;;;;;9176381;19;20022;-66
2024/02/28 02:04:31;;;;;;;39.55;14.55;;;4.00;85.40;;;;;;9175009;19;20011;-65
2024/02/28 02:07:42;;;;;;;32.90;14.48;;;4.00;85.40;;;;;;9176865;19;20041;-66
2024/02/28 02:10:48;;;;;;;32.80;14.93;;;4.00;85.40;;;;;;9175869;19;20033;-65
2024/02/28 02:13:56;;;;;;;41.75;15.65;;;4.00;85.40;;;;;;9171590;19;20438;-66
2024/02/28 02:17:02;;;;;;;32.88;15.38;;;3.90;85.40;;;;;;9175986;19;20039;-67
2024/02/28 02:20:14;;;;;;;35.33;15.88;;;4.00;85.40;;;;;;9176282;19;20014;-64
2024/02/28 02:23:22;;;;;;;29.88;15.43;;;4.00;85.50;;;;;;9175909;19;20070;-65
2024/02/28 02:26:29;;;;;;;36.53;15.85;;;3.90;85.50;;;;;;9175559;19;20015;-67
2024/02/28 02:29:35;;;;;;;46.67;16.42;;;4.00;85.50;;;;;;9176056;19;20025;-66
2024/02/28 02:32:42;;;;;;;35.92;16.67;;;4.00;85.50;;;;;;9176200;19;20026;-67
2024/02/28 02:35:48;;;;;;;35.38;15.10;;;3.90;85.50;;;;;;9170054;19;20077;-67
2024/02/28 02:38:58;;;;;;;33.33;15.57;;;3.90;85.50;;;;;;9172000;19;20022;-66
2024/02/28 02:42:04;;;;;;;35.78;16.17;;;4.00;85.60;;;;;;9175536;19;20020;-67
2024/02/28 02:45:12;;;;;;;31.80;15.57;;;3.90;85.60;;;;;;9175612;19;20029;-65
2024/02/28 02:48:18;;;;;;;39.85;16.55;;;3.90;85.60;;;;;;9174133;19;20385;-65
2024/02/28 02:51:25;;;;;;;31.63;15.23;;;3.90;85.60;;;;;;9175667;19;20010;-65
2024/02/28 02:54:34;;;;;;;42.05;16.63;;;3.90;85.60;;;;;;9173930;19;20036;-65
2024/02/28 02:57:43;;;;;;;42.30;18.13;;;3.90;85.60;;;;;;9174722;19;20018;-66
2024/02/28 03:00:49;;;;;;;35.95;16.52;;;3.90;85.60;;;;;;9175003;19;20014;-67
2024/02/28 03:03:57;;;;;;;39.20;17.00;;;3.90;85.60;;;;;;9174834;19;20606;-65
2024/02/28 03:07:03;;;;;;;36.17;16.48;;;4.00;85.70;;;;;;9173803;19;20018;-66
2024/02/28 03:10:13;;;;;;;38.58;17.08;;;4.00;85.80;;;;;;9174747;19;20011;-66
2024/02/28 03:13:18;;;;;;;36.88;16.92;;;4.00;85.70;;;;;;9173657;19;20022;-66
2024/02/28 03:16:26;;;;;;;38.13;17.25;;;4.00;85.80;;;;;;9170644;19;20341;-67
2024/02/28 03:19:31;;;;;;;38.08;17.05;;;4.00;85.90;;;;;;9174503;19;20014;-66
2024/02/28 03:22:39;;;;;;;38.13;16.42;;;4.00;86.40;;;;;;9173363;19;20022;-65
2024/02/28 03:25:47;;;;;;;42.42;18.08;;;4.00;85.80;;;;;;9175147;19;20025;-65
2024/02/28 03:28:54;;;;;;;37.95;16.33;;;4.00;85.80;;;;;;9173294;19;20373;-66
2024/02/28 03:32:01;;;;;;;41.90;17.35;;;4.00;85.80;;;;;;9173786;19;20018;-68
2024/02/28 03:35:10;;;;;;;40.13;17.73;;;4.00;85.80;;;;;;9172435;19;20018;-66
2024/02/28 03:38:15;;;;;;;36.97;17.60;;;4.00;85.80;;;;;;9171397;19;20018;-65
2024/02/28 03:41:25;;;;;;;37.95;17.48;;;4.00;85.80;;;;;;9173223;19;20050;-66
2024/02/28 03:44:31;;;;;;;42.42;17.40;;;4.00;85.80;;;;;;9173431;19;20472;-67
2024/02/28 03:47:38;;;;;;;40.58;18.42;;;4.00;85.90;;;;;;9178800;19;20025;-65
2024/02/28 03:50:44;;;;;;;42.63;18.02;;;4.00;85.90;;;;;;9181948;19;20364;-66
2024/02/28 03:53:51;;;;;;;44.75;18.13;;;4.00;85.80;;;;;;9182287;19;20490;-65
2024/02/28 03:56:59;;;;;;;39.30;17.65;;;4.00;85.90;;;;;;9182512;19;20015;-67
2024/02/28 04:00:09;;;;;;;38.03;17.85;;;4.00;85.90;;;;;;9182089;19;20029;-68
2024/02/28 04:03:17;;;;;;;36.85;17.23;;;4.00;85.90;;;;;;9180143;19;20847;-67
2024/02/28 04:06:25;;;;;;;37.63;17.58;;;4.00;85.90;;;;;;9181576;19;20030;-65
2024/02/28 04:09:30;;;;;;;37.53;17.70;;;4.00;86.00;;;;;;9181589;19;20029;-66
2024/02/28 04:12:40;;;;;;;41.45;18.40;;;4.00;86.00;;;;;;9180816;19;20025;-66
2024/02/28 04:15:48;;;;;;;42.05;17.98;;;4.00;86.00;;;;;;9175929;19;20014;-67
2024/02/28 04:18:55;;;;;;;43.00;18.50;;;4.00;86.00;;;;;;9181427;19;20026;-66
2024/02/28 04:22:01;;;;;;;50.40;17.92;;;4.00;85.90;;;;;;9181045;19;20124;-67
2024/02/28 04:25:10;;;;;;;40.10;17.58;;;4.00;86.00;;;;;;9180987;19;20022;-67
2024/02/28 04:28:18;;;;;;;46.28;19.23;;;4.00;86.00;;;;;;9180932;19;20019;-65
2024/02/28 04:31:26;;;;;;;42.10;18.55;;;4.00;85.90;;;;;;9180164;19;20019;-66
2024/02/28 04:34:31;;;;;;;43.75;18.45;;;4.00;85.90;;;;;;9180512;19;20014;-65
2024/02/28 04:37:39;;;;;;;41.10;17.80;;;4.00;86.00;;;;;;9179138;19;20022;-66
2024/02/28 04:40:45;;;;;;;42.20;17.90;;;4.00;86.00;;;;;;9180669;19;20011;-66
2024/02/28 04:43:55;;;;;;;39.10;17.35;;;4.00;86.00;;;;;;9180013;19;20023;-66
2024/02/28 04:47:00;;;;;;;39.08;17.65;;;4.00;86.00;;;;;;9180490;19;20030;-65
2024/02/28 04:50:09;;;;;;;45.28;18.77;;;4.00;86.00;;;;;;9179511;19;20018;-67
2024/02/28 04:53:14;;;;;;;41.58;18.63;;;4.00;86.00;;;;;;9179264;19;20523;-67
2024/02/28 04:56:22;;;;;;;45.08;20.45;;;4.00;86.10;;;;;;9176718;19;20010;-67
2024/02/28 04:59:30;;;;;;;42.17;18.05;;;4.00;86.10;;;;;;9175714;19;20050;-64
2024/02/28 05:02:37;;;;;;;45.33;18.45;;;4.00;86.10;;;;;;9178327;19;20775;-64
2024/02/28 05:05:43;;;;;;;41.90;18.20;;;4.00;86.20;;;;;;9176697;19;20011;-65
2024/02/28 05:08:50;;;;;;;44.97;19.25;;;4.00;86.10;;;;;;9178380;19;20014;-68
2024/02/28 05:11:56;;;;;;;50.60;19.58;;;4.00;86.10;;;;;;9178425;19;20578;-65
2024/02/28 05:15:07;;;;;;;44.75;20.23;;;4.00;86.10;;;;;;9173840;19;20011;-68
2024/02/28 05:18:13;;;;;;;46.10;19.58;;;4.10;86.20;;;;;;9178536;19;20003;-67
2024/02/28 05:21:20;;;;;;;43.92;19.42;;;4.00;86.10;;;;;;9178556;19;20017;-65
2024/02/28 05:24:26;;;;;;;44.65;19.25;;;4.00;86.10;;;;;;9178081;19;20059;-65
2024/02/28 05:27:33;;;;;;;47.95;20.13;;;4.00;86.10;;;;;;9178701;19;20371;-65
2024/02/28 05:30:41;;;;;;;47.53;19.42;;;4.00;86.10;;;;;;9178712;19;20108;-65
2024/02/28 05:33:54;;;;;;;40.47;17.77;;;4.00;86.10;;;;;;9177866;19;20010;-64
2024/02/28 05:37:00;;;;;;;49.30;20.38;;;4.00;86.20;;;;;;9175439;19;20025;-66
2024/02/28 05:40:12;;;;;;;44.47;18.55;;;4.10;86.20;;;;;;9176946;19;20487;-67
2024/02/28 05:43:18;;;;;;;45.03;18.73;;;4.00;86.10;;;;;;9177838;19;20011;-65
2024/02/28 05:46:28;;;;;;;43.35;17.52;;;4.00;86.10;;;;;;9177329;19;20029;-66
2024/02/28 05:49:33;;;;;;;43.10;18.67;;;4.00;86.10;;;;;;9176315;19;20043;-68
2024/02/28 05:52:43;;;;;;;42.58;19.02;;;4.00;86.10;;;;;;9177166;19;20022;-66
2024/02/28 05:55:49;;;;;;;43.92;18.75;;;4.00;86.10;;;;;;9175264;19;20463;-66
2024/02/28 05:58:56;;;;;;;49.42;21.52;;;4.00;86.20;;;;;;9177315;19;20018;-65
2024/02/28 06:02:04;;;;;;;44.35;18.83;;;4.00;86.20;;;;;;9177485;19;20030;-64
2024/02/28 06:05:12;;;;;;;40.50;18.92;;;4.00;86.20;;;;;;9176291;19;20352;-65
2024/02/28 06:08:17;;;;;;;45.25;18.90;;;4.00;86.20;;;;;;9176712;19;20018;-66
2024/02/28 06:11:25;;;;;;;47.05;20.10;;;4.00;86.20;;;;;;9177090;19;20030;-66
2024/02/28 06:14:31;;;;;;;46.60;18.80;;;4.00;86.30;;;;;;9172152;19;20018;-68
2024/02/28 06:17:41;;;;;;;53.10;21.23;;;4.00;86.20;;;;;;9174635;19;20018;-67
2024/02/28 06:20:47;;;;;;;44.08;19.95;;;4.00;86.30;;;;;;9176893;19;20150;-68
2024/02/28 06:23:54;;;;;;;49.25;20.80;;;4.00;86.30;;;;;;9176265;19;20014;-66
2024/02/28 06:27:00;;;;;;;43.30;19.58;;;4.00;86.30;;;;;;9175584;19;20089;-66
2024/02/28 06:30:09;;;;;;;46.83;20.00;;;4.00;86.30;;;;;;9176371;19;20019;-67
2024/02/28 06:33:18;;;;;;;48.20;20.42;;;4.00;86.20;;;;;;9176635;19;20356;-66
2024/02/28 06:36:26;;;;;;;42.67;19.52;;;4.00;86.20;;;;;;9174372;19;20017;-67
2024/02/28 06:39:31;;;;;;;49.50;19.83;;;4.00;86.90;;;;;;9174729;19;20021;-68
2024/02/28 06:42:39;;;;;;;47.53;20.33;;;4.00;86.30;;;;;;9175734;19;20695;-66
2024/02/28 06:45:45;;;;;;;54.50;21.10;;;4.00;86.40;;;;;;9174989;19;20014;-67
2024/02/28 06:48:58;;;;;;;47.92;20.40;;;4.00;86.30;;;;;;9169185;19;20030;-67
2024/02/28 06:52:04;;;;;;;52.92;20.25;;;4.00;86.30;;;;;;9173380;19;20014;-66
2024/02/28 06:55:14;;;;;;;46.65;20.23;;;4.00;86.30;;;;;;9171735;19;20014;-66
2024/02/28 06:58:19;;;;;;;51.17;22.52;;;4.00;86.30;;;;;;9169946;19;20015;-66
2024/02/28 07:01:27;;;;;;;50.25;20.45;;;4.00;87.00;;;;;;9165624;19;20014;-69
2024/02/28 07:04:36;;;;;;;58.40;21.45;;;4.00;86.40;;;;;;9174324;19;20026;-65
2024/02/28 07:07:44;;;;;;;52.40;20.70;;;4.00;86.40;;;;;;9172641;19;20018;-65
2024/02/28 07:10:53;;;;;;;53.95;21.27;;;4.00;86.40;;;;;;9173121;19;20387;-67
2024/02/28 07:14:02;;;;;;;59.65;23.20;;;4.00;86.40;;;;;;9167404;19;20015;-68
2024/02/28 07:17:07;;;;;;;49.50;20.80;;;4.00;86.50;;;;;;9171788;19;20023;-70
2024/02/28 07:20:18;;;;;;;55.45;21.55;;;4.00;86.50;;;;;;9173996;19;20578;-68
2024/02/28 07:23:23;;;;;;;58.30;21.40;;;4.00;86.50;;;;;;9180093;19;20043;-66
2024/02/28 07:26:31;;;;;;;56.17;21.52;;;4.10;86.60;;;;;;9183367;19;20029;-66
2024/02/28 07:29:36;;;;;;;56.50;23.35;;;4.10;86.60;;;;;;9181705;19;20090;-66
2024/02/28 07:32:44;;;;;;;60.28;22.80;;;4.10;86.60;;;;;;9181661;19;20489;-66
2024/02/28 07:35:55;;;;;;;63.13;23.10;;;4.10;86.70;;;;;;9182456;19;20472;-65
2024/02/28 07:39:02;;;;;;;60.88;23.15;;;4.10;86.70;;;;;;9178297;19;20070;-66
2024/02/28 07:42:08;;;;;;;61.53;23.10;;;4.20;86.70;;;;;;9181747;19;20025;-64
2024/02/28 07:45:16;;;;;;;63.95;25.10;;;4.20;86.70;;;;;;9180684;19;20601;-67
2024/02/28 07:48:21;;;;;;;67.45;24.08;;;4.20;86.70;;;;;;9181211;19;20025;-66
2024/02/28 07:51:32;;;;;;;62.58;24.17;;;4.30;86.80;;;;;;9183510;19;20025;-66
2024/02/28 07:54:37;;;;;;;64.07;22.08;;;4.30;86.90;;;;;;9182954;19;20037;-65
2024/02/28 07:57:45;;;;;;;65.47;22.95;;;4.30;86.90;;;;;;9178801;19;20011;-68
2024/02/28 08:00:52;;;;;;;63.75;24.50;;;4.30;86.90;;;;;;9182463;19;20452;-67
2024/02/28 08:04:00;;;;;;;59.28;22.77;;;4.40;87.00;;;;;;9183468;19;20109;-67
2024/02/28 08:07:08;;;;;;;63.25;23.48;;;4.40;86.90;;;;;;9176347;19;20100;-68
2024/02/28 08:10:16;;;;;;;55.00;22.00;;;4.40;87.00;;;;;;9181520;19;20097;-66
2024/02/28 08:13:21;;;;;;;54.58;23.92;;;4.50;87.10;;;;;;9180631;19;20062;-67
2024/02/28 08:16:29;;;;;;;62.15;23.67;;;4.50;87.10;;;;;;9177146;19;20047;-67
2024/02/28 08:19:37;;;;;;;55.97;23.38;;;4.60;87.20;;;;;;9183144;19;20022;-66
2024/02/28 08:22:47;;;;;;;57.20;23.55;;;4.60;87.20;;;;;;9182303;19;20030;-66
2024/02/28 08:25:53;;;;;;;61.00;23.85;;;4.60;87.20;;;;;;9182464;19;20082;-65
2024/02/28 08:29:00;;;;;;;69.43;25.30;;;4.70;87.30;;;;;;9181894;19;20021;-66
2024/02/28 08:32:06;;;;;;;61.72;24.27;;;4.80;87.40;;;;;;9179770;19;20011;-65
2024/02/28 08:35:14;;;;;;;56.33;24.33;;;4.80;87.50;;;;;;9181000;19;20010;-68
2024/02/28 08:38:22;;;;;;;57.35;25.30;;;4.80;87.40;;;;;;9179399;19;20376;-68
2024/02/28 08:41:29;;;;;;;58.30;25.05;;;4.90;87.60;;;;;;9181385;19;20832;-66
2024/02/28 08:44:35;;;;;;;55.25;23.98;;;5.00;87.60;;;;;;9180842;19;20063;-65
2024/02/28 08:47:44;;;;;;;58.63;24.65;;;5.00;87.50;;;;;;9180391;19;20019;-67
2024/02/28 08:50:50;;;;;;;62.08;24.90;;;5.10;87.60;;;;;;9180224;19;20010;-66
2024/02/28 08:54:00;;;;;;;55.28;24.55;;;5.10;87.50;;;;;;9179525;19;20443;-68
2024/02/28 08:57:06;;;;;;;53.72;24.13;;;5.20;87.60;;;;;;9180107;19;20475;-67
2024/02/28 09:00:19;;;;;;;52.72;24.65;;;5.20;87.60;;;;;;9177666;19;20468;-66
2024/02/28 09:03:25;;;;;;;55.85;24.88;;;5.30;87.50;;;;;;9180388;19;20093;-69
2024/02/28 09:06:32;;;;;;;57.95;24.85;;;5.30;87.50;;;;;;9179835;19;20015;-66
2024/02/28 09:09:44;;;;;;;59.08;25.88;;;5.40;87.60;;;;;;9177769;19;20035;-69
2024/02/28 09:12:52;;;;;;;63.75;26.27;;;5.40;87.60;;;;;;9176219;19;20010;-67
2024/02/28 09:15:57;;;;;;;57.03;25.42;;;5.50;87.70;;;;;;9175510;19;20385;-66
2024/02/28 09:19:06;;;;;;;58.50;25.27;;;5.50;87.70;;;;;;9176437;19;20014;-69
2024/02/28 09:22:11;;;;;;;55.83;26.33;;;5.60;87.70;;;;;;9175738;19;20485;-66
2024/02/28 09:25:22;;;;;;;48.42;25.40;;;5.70;87.80;;;;;;9178442;19;20014;-69
2024/02/28 09:28:32;;;;;;;51.50;24.42;;;5.70;87.80;;;;;;9176962;19;20038;-66
2024/02/28 09:31:39;;;;;;;49.47;25.00;;;5.80;87.70;;;;;;9175673;19;20021;-68
2024/02/28 09:34:45;;;;;;;49.72;24.42;;;5.80;87.70;;;;;;9175147;19;20014;-68
2024/02/28 09:37:52;;;;;;;47.50;24.27;;;5.90;87.80;;;;;;9174300;19;20041;-67
2024/02/28 09:41:00;;;;;;;47.38;23.70;;;5.90;87.80;;;;;;9175484;19;20019;-68
2024/02/28 09:44:09;;;;;;;51.97;25.10;;;6.00;87.80;;;;;;9176079;19;20436;-69
2024/02/28 09:47:15;;;;;;;44.55;22.95;;;6.00;87.70;;;;;;9174835;19;20015;-68
2024/02/28 09:50:24;;;;;;;47.80;25.63;;;6.10;87.70;;;;;;9174278;19;20015;-69
2024/02/28 09:53:30;;;;;;;50.85;25.30;;;6.20;87.70;;;;;;9175887;19;20028;-68
2024/02/28 09:56:40;;;;;;;51.97;26.60;;;6.20;87.70;;;;;;9175926;19;20384;-67
2024/02/28 09:59:46;;;;;;;50.33;24.77;;;6.20;87.60;;;;;;9174101;19;20022;-68
2024/02/28 10:03:04;;;;;;;52.00;25.45;;;6.30;87.70;;;;;;9174835;19;20018;-66
2024/02/28 10:06:09;;;;;;;54.50;27.33;;;6.30;87.60;;;;;;9176396;19;20713;-67
2024/02/28 10:09:19;;;;;;;53.72;24.45;;;6.40;87.70;;;;;;9176473;19;20010;-68
2024/02/28 10:12:27;;;;;;;52.50;26.90;;;6.40;87.60;;;;;;9175844;19;20047;-68
2024/02/28 10:15:35;;;;;;;52.85;26.80;;;6.40;87.60;;;;;;9174109;19;20476;-68
2024/02/28 10:18:41;;;;;;;52.13;26.67;;;6.50;88.20;;;;;;9175530;19;20018;-68
2024/02/28 10:21:49;;;;;;;46.72;25.85;;;6.50;87.60;;;;;;9176013;19;20010;-68
2024/02/28 10:24:59;;;;;;;50.95;26.33;;;6.50;87.60;;;;;;9173683;19;20463;-67
2024/02/28 10:28:10;;;;;;;50.08;25.42;;;6.60;87.60;;;;;;9174055;19;20013;-67
2024/02/28 10:31:16;;;;;;;47.80;24.48;;;6.60;87.60;;;;;;9173394;19;20014;-68
2024/02/28 10:34:24;;;;;;;47.05;24.75;;;6.70;87.60;;;;;;9175081;19;20021;-69
2024/02/28 10:37:32;;;;;;;46.20;24.05;;;6.70;87.60;;;;;;9174202;19;20022;-69
2024/02/28 10:40:40;;;;;;;47.80;24.02;;;6.70;87.50;;;;;;9175541;19;20018;-69
2024/02/28 10:43:51;;;;;;;42.85;23.60;;;6.70;87.40;;;;;;9174988;19;20015;-67
2024/02/28 10:46:58;;;;;;;42.10;23.27;;;6.80;87.50;;;;;;9174594;19;20014;-66
2024/02/28 10:50:04;;;;;;;49.40;24.45;;;6.80;87.50;;;;;;9174544;19;20047;-69
2024/02/28 10:53:17;;;;;;;41.83;22.38;;;6.80;87.60;;;;;;9173672;19;20021;-70
2024/02/28 10:56:23;;;;;;;42.00;22.10;;;6.80;87.40;;;;;;9173587;19;20014;-69
2024/02/28 10:59:35;;;;;;;44.85;22.95;;;6.90;87.40;;;;;;9172028;19;20020;-68
2024/02/28 11:02:43;;;;;;;47.45;23.10;;;6.90;87.50;;;;;;9173671;19;20095;-67
2024/02/28 11:05:50;;;;;;;45.47;24.40;;;6.90;87.40;;;;;;9173635;19;20010;-69
2024/02/28 11:08:56;;;;;;;44.20;22.77;;;7.00;87.30;;;;;;9173726;19;20059;-68
2024/02/28 11:12:07;;;;;;;43.42;23.50;;;7.00;87.30;;;;;;9173620;19;20014;-68
2024/02/28 11:15:20;;;;;;;43.53;23.60;;;7.00;87.30;;;;;;9169406;19;20018;-69
2024/02/28 11:18:27;;;;;;;44.42;23.08;;;7.10;87.30;;;;;;9172828;19;20021;-69
2024/02/28 11:21:37;;;;;;;48.33;23.80;;;7.10;87.30;;;;;;9171674;19;20026;-69
2024/02/28 11:24:47;;;;;;;47.05;24.73;;;7.10;87.20;;;;;;9173954;19;20037;-69
2024/02/28 11:27:53;;;;;;;53.05;25.45;;;7.20;87.30;;;;;;9170961;19;20016;-67
2024/02/28 11:31:03;;;;;;;46.72;24.90;;;7.20;87.20;;;;;;9171206;19;20497;-70
2024/02/28 11:34:09;;;;;;;47.60;24.55;;;7.20;87.20;;;;;;9173092;19;20022;-67
2024/02/28 11:37:17;;;;;;;49.25;25.23;;;7.20;87.20;;;;;;9171753;19;20494;-68
2024/02/28 11:40:22;;;;;;;55.13;25.77;;;7.30;87.20;;;;;;9170625;19;20067;-67
2024/02/28 11:43:30;;;;;;;52.30;25.80;;;7.30;87.20;;;;;;9170938;19;20032;-68
2024/02/28 11:46:51;;;;;;;55.03;27.13;;;7.30;87.20;;;;;;9172612;19;20479;-69
2024/02/28 11:50:01;;;;;;;48.13;24.95;;;7.40;87.20;;;;;;9173207;19;20025;-66
2024/02/28 11:53:09;;;;;;;54.78;25.83;;;7.40;87.10;;;;;;9173346;19;20109;-68
2024/02/28 11:56:21;;;;;;;52.63;25.30;;;7.40;87.20;;;;;;9173346;19;20029;-69
2024/02/28 11:59:26;;;;;;;54.45;26.10;;;7.40;87.20;;;;;;9170149;19;20026;-69
2024/02/28 12:02:36;;;;;;;53.58;24.83;;;7.50;87.40;;;;;;9172888;19;20011;-67
2024/02/28 12:05:46;;;;;;;50.03;25.05;;;7.50;87.30;;;;;;9172481;19;20086;-68
2024/02/28 12:08:54;;;;;;;50.20;25.27;;;7.60;87.30;;;;;;9176294;19;20014;-68
2024/02/28 12:12:03;;;;;;;50.75;25.40;;;7.60;87.90;;;;;;9180207;19;20050;-67
2024/02/28 12:15:12;;;;;;;48.78;22.77;;;7.70;87.30;;;;;;9178218;19;20015;-69
2024/02/28 12:18:20;;;;;;;47.47;23.65;;;7.70;87.30;;;;;;9181425;19;20105;-69
2024/02/28 12:21:28;;;;;;;49.05;24.15;;;7.70;87.30;;;;;;9178532;19;20062;-69
2024/02/28 12:24:34;;;;;;;48.95;25.00;;;7.80;87.40;;;;;;9177108;19;20046;-67
2024/02/28 12:27:41;;;;;;;45.45;23.02;;;7.80;87.40;;;;;;9171791;19;20353;-68
2024/02/28 12:30:47;;;;;;;40.35;21.38;;;7.90;87.40;;;;;;9176744;19;20019;-68
2024/02/28 12:33:57;;;;;;;41.35;21.60;;;8.00;87.40;;;;;;9176985;19;20014;-70
2024/02/28 12:37:04;;;;;;;49.35;23.08;;;8.00;87.40;;;;;;9177815;19;20439;-67
2024/02/28 12:40:14;;;;;;;44.97;22.40;;;8.10;87.50;;;;;;9179044;19;20019;-69
2024/02/28 12:43:19;;;;;;;46.75;22.25;;;8.20;87.50;;;;;;9180514;19;20015;-67
2024/02/28 12:46:27;;;;;;;44.60;21.17;;;8.20;87.50;;;;;;9178567;19;20609;-67
2024/02/28 12:49:35;;;;;;;51.20;22.00;;;8.30;87.50;;;;;;9178081;19;20351;-66
2024/02/28 12:52:42;;;;;;;47.65;23.95;;;8.40;87.50;;;;;;9179113;19;20023;-67
2024/02/28 12:55:48;;;;;;;48.53;24.48;;;8.40;87.40;;;;;;9181654;19;20047;-70
2024/02/28 12:58:55;;;;;;;45.20;21.10;;;8.50;87.40;;;;;;9181584;19;20438;-70
2024/02/28 13:02:01;;;;;;;49.95;22.65;;;8.60;87.40;;;;;;9181603;19;20769;-67
2024/02/28 13:05:14;;;;;;;41.30;21.27;;;8.60;87.40;;;;;;9180635;19;20086;-68
2024/02/28 13:08:19;;;;;;;52.42;23.75;;;8.70;87.40;;;;;;9178085;19;20018;-68
2024/02/28 13:11:27;;;;;;;45.15;22.90;;;8.70;87.30;;;;;;9179397;19;20014;-67
2024/02/28 13:14:33;;;;;;;49.65;24.33;;;8.80;87.40;;;;;;9175005;19;20138;-67
2024/02/28 13:17:41;;;;;;;51.22;23.80;;;8.80;87.20;;;;;;9178626;19;20010;-67
2024/02/28 13:20:49;;;;;;;49.95;22.83;;;8.80;87.20;;;;;;9175636;19;20022;-67
2024/02/28 13:23:57;;;;;;;49.67;24.23;;;8.90;87.20;;;;;;9179164;19;20543;-67
2024/02/28 13:27:02;;;;;;;50.03;23.73;;;8.90;87.20;;;;;;9176461;19;20484;-67
2024/02/28 13:30:11;;;;;;;50.78;24.08;;;9.00;87.20;;;;;;9178832;19;20015;-66
2024/02/28 13:33:17;;;;;;;51.08;23.50;;;9.00;87.10;;;;;;9176929;19;20015;-69
2024/02/28 13:36:27;;;;;;;53.78;24.63;;;9.10;87.10;;;;;;9178250;19;20483;-68
2024/02/28 13:39:34;;;;;;;56.55;24.60;;;9.10;87.00;;;;;;9178031;19;20018;-68
2024/02/28 13:42:42;;;;;;;56.22;25.13;;;9.10;87.00;;;;;;9169633;19;20025;-67
2024/02/28 13:45:51;;;;;;;56.60;25.48;;;9.20;86.90;;;;;;9175928;19;20018;-68
2024/02/28 13:48:58;;;;;;;60.08;26.95;;;9.20;86.80;;;;;;9177592;19;20014;-69
2024/02/28 13:52:07;;;;;;;55.25;26.02;;;9.20;86.80;;;;;;9176759;19;20021;-69
2024/02/28 13:55:15;;;;;;;56.83;26.40;;;9.30;86.70;;;;;;9177331;19;20022;-69
2024/02/28 13:58:21;;;;;;;54.58;26.33;;;9.30;86.60;;;;;;9177715;19;20046;-69
2024/02/28 14:01:29;;;;;;;65.65;25.77;;;9.20;86.60;;;;;;9174107;19;20011;-67
2024/02/28 14:04:35;;;;;;;60.10;25.30;;;9.30;86.60;;;;;;9177774;19;20018;-68
2024/02/28 14:07:45;;;;;;;53.90;24.92;;;9.30;86.50;;;;;;9177523;19;20015;-67
2024/02/28 14:10:50;;;;;;;59.42;25.10;;;9.30;87.10;;;;;;9176694;19;20031;-67
2024/02/28 14:13:58;;;;;;;53.13;24.70;;;9.30;86.40;;;;;;9171422;19;20025;-67
2024/02/28 14:17:04;;;;;;;60.05;23.90;;;9.30;86.40;;;;;;9174431;19;20014;-66
2024/02/28 14:20:13;;;;;;;50.53;23.17;;;9.30;86.90;;;;;;9174910;19;20483;-67
2024/02/28 14:23:21;;;;;;;52.70;22.35;;;9.30;86.40;;;;;;9173855;19;20022;-67
2024/02/28 14:26:28;;;;;;;47.90;22.50;;;9.30;86.30;;;;;;9174202;19;20014;-67
2024/02/28 14:29:34;;;;;;;56.85;24.23;;;9.30;86.20;;;;;;9176625;19;20026;-68
2024/02/28 14:32:43;;;;;;;55.05;22.50;;;9.30;86.10;;;;;;9174623;19;20021;-67
2024/02/28 14:35:49;;;;;;;57.22;23.30;;;9.30;86.20;;;;;;9176473;19;20018;-67
2024/02/28 14:38:59;;;;;;;52.63;23.40;;;9.30;86.20;;;;;;9174210;19;20019;-67
2024/02/28 14:42:04;;;;;;;53.50;23.33;;;9.30;86.10;;;;;;9174316;19;20028;-67
2024/02/28 14:45:14;;;;;;;55.38;24.30;;;9.30;86.10;;;;;;9175109;19;20014;-68
2024/02/28 14:48:19;;;;;;;54.33;23.58;;;9.30;86.10;;;;;;9175577;19;20022;-66
2024/02/28 14:51:29;;;;;;;56.63;23.35;;;9.30;86.10;;;;;;9175849;19;20022;-68
2024/02/28 14:54:38;;;;;;;58.80;23.02;;;9.30;86.10;;;;;;9175203;19;20018;-67
2024/02/28 14:57:46;;;;;;;54.80;22.33;;;9.30;86.00;;;;;;9174172;19;20014;-66
2024/02/28 15:00:51;;;;;;;44.45;21.00;;;9.30;86.00;;;;;;9173282;19;20010;-66
2024/02/28 15:03:59;;;;;;;50.97;22.30;;;9.30;86.00;;;;;;9174903;19;20367;-67
2024/02/28 15:07:05;;;;;;;49.47;22.05;;;9.30;86.00;;;;;;9173638;19;20025;-67
2024/02/28 15:10:16;;;;;;;52.97;22.63;;;9.30;85.90;;;;;;9171088;19;20037;-67
2024/02/28 15:13:23;;;;;;;49.78;21.50;;;9.30;85.90;;;;;;9170470;19;20082;-66
2024/02/28 15:16:31;;;;;;;50.05;22.45;;;9.30;85.90;;;;;;9165302;19;20018;-67
2024/02/28 15:19:36;;;;;;;49.15;21.55;;;9.30;85.90;;;;;;9169146;19;20022;-66
2024/02/28 15:22:45;;;;;;;52.55;22.67;;;9.30;85.90;;;;;;9170459;19;20483;-68
2024/02/28 15:25:55;;;;;;;49.05;19.85;;;9.20;85.80;;;;;;9171661;19;20022;-67
2024/02/28 15:29:02;;;;;;;50.15;21.70;;;9.20;85.80;;;;;;9171328;19;20458;-67
2024/02/28 15:32:08;;;;;;;54.65;22.00;;;9.20;85.80;;;;;;9171816;19;20019;-68
2024/02/28 15:35:16;;;;;;;59.58;22.42;;;9.20;85.80;;;;;;9171405;19;20002;-68
2024/02/28 15:38:22;;;;;;;56.78;20.70;;;9.20;85.80;;;;;;9167304;19;20795;-70
2024/02/28 15:41:32;;;;;;;53.35;21.83;;;9.20;85.80;;;;;;9169890;19;20488;-67
2024/02/28 15:44:37;;;;;;;55.40;20.92;;;9.10;85.70;;;;;;9180065;19;20025;-68
2024/02/28 15:47:45;;;;;;;55.08;21.98;;;9.10;85.70;;;;;;9180870;19;20014;-68
2024/02/28 15:50:52;;;;;;;51.28;21.65;;;9.20;85.70;;;;;;9180921;19;20144;-70
2024/02/28 15:54:00;;;;;;;57.85;22.65;;;9.10;85.70;;;;;;9179406;19;20010;-68
2024/02/28 15:57:09;;;;;;;58.22;22.40;;;9.10;85.70;;;;;;9179376;19;20018;-68
2024/02/28 16:00:18;;;;;;;58.78;21.48;;;9.10;85.70;;;;;;9182800;19;20018;-67
2024/02/28 16:03:24;;;;;;;54.67;21.73;;;9.10;85.60;;;;;;9176047;19;20078;-69